Sussex, North Carolina
Current Conditions -  °F | °C
As of 9:35 AM on Friday 24 Oct 2014 (Local Time) from KGEV Reporting Station
Clear Clear  
Wind Chill: 44°   Ceiling: Unl
Heat Index: 44°   Visibility: 10mi
Dew Point: 35°   Wind: 0mph
Humidity: 70%   Direction: NA
Pressure: 30.1"   Gusts: NA
Location:  36.5447°N, 81.4342°W
Report Text: KGEV 241335Z AUTO 00000KT 10SM CLR 07/02 A3010 RMK AO2 T00670016
Loading
Personal Weather Stations






























Interactive Weather Map
Tropical Storm Tracking
New forecast layout! Learn more

10-Day Weather Forecast

Advertisements
Track Severe Weather on mobile